sensor_id;sensor_type;location;lat;lon;timestamp;P1;durP1;ratioP1;P2;durP2;ratioP2
66946;SDS011;53853;51.982;5.928;2023-04-15T00:02:25;5.75;;;3.65;;
66946;SDS011;53853;51.982;5.928;2023-04-15T00:04:57;9.68;;;4.80;;
66946;SDS011;53853;51.982;5.928;2023-04-15T00:07:27;7.47;;;4.55;;
66946;SDS011;53853;51.982;5.928;2023-04-15T00:09:57;5.22;;;4.25;;
66946;SDS011;53853;51.982;5.928;2023-04-15T00:12:29;6.03;;;4.07;;
66946;SDS011;53853;51.982;5.928;2023-04-15T00:14:58;7.03;;;3.95;;
66946;SDS011;53853;51.982;5.928;2023-04-15T00:17:28;7.75;;;3.92;;
66946;SDS011;53853;51.982;5.928;2023-04-15T00:20:01;5.40;;;3.13;;
66946;SDS011;53853;51.982;5.928;2023-04-15T00:22:31;8.45;;;5.68;;
66946;SDS011;53853;51.982;5.928;2023-04-15T00:25:01;6.70;;;4.35;;
66946;SDS011;53853;51.982;5.928;2023-04-15T00:27:31;5.57;;;4.07;;
66946;SDS011;53853;51.982;5.928;2023-04-15T00:30:01;6.25;;;3.70;;
66946;SDS011;53853;51.982;5.928;2023-04-15T00:32:31;5.75;;;3.90;;
66946;SDS011;53853;51.982;5.928;2023-04-15T00:35:04;6.80;;;4.20;;
66946;SDS011;53853;51.982;5.928;2023-04-15T00:37:35;7.20;;;3.95;;
66946;SDS011;53853;51.982;5.928;2023-04-15T00:40:06;5.53;;;3.50;;
66946;SDS011;53853;51.982;5.928;2023-04-15T00:42:40;6.38;;;4.32;;
66946;SDS011;53853;51.982;5.928;2023-04-15T00:45:10;6.45;;;4.55;;
66946;SDS011;53853;51.982;5.928;2023-04-15T00:47:40;9.98;;;4.70;;
66946;SDS011;53853;51.982;5.928;2023-04-15T00:50:14;6.05;;;3.85;;
66946;SDS011;53853;51.982;5.928;2023-04-15T00:52:44;7.78;;;3.80;;
66946;SDS011;53853;51.982;5.928;2023-04-15T00:55:14;6.18;;;4.43;;
66946;SDS011;53853;51.982;5.928;2023-04-15T00:57:44;4.63;;;3.70;;
66946;SDS011;53853;51.982;5.928;2023-04-15T01:00:14;7.22;;;4.35;;
66946;SDS011;53853;51.982;5.928;2023-04-15T01:02:45;6.25;;;4.43;;
66946;SDS011;53853;51.982;5.928;2023-04-15T01:05:18;4.57;;;3.38;;
66946;SDS011;53853;51.982;5.928;2023-04-15T01:07:48;5.97;;;3.92;;
66946;SDS011;53853;51.982;5.928;2023-04-15T01:10:18;8.20;;;4.50;;
66946;SDS011;53853;51.982;5.928;2023-04-15T01:12:48;5.05;;;3.08;;
66946;SDS011;53853;51.982;5.928;2023-04-15T01:15:18;4.30;;;3.20;;
66946;SDS011;53853;51.982;5.928;2023-04-15T01:17:49;7.53;;;4.38;;
66946;SDS011;53853;51.982;5.928;2023-04-15T01:20:21;4.82;;;3.15;;
66946;SDS011;53853;51.982;5.928;2023-04-15T01:22:52;5.30;;;3.90;;
66946;SDS011;53853;51.982;5.928;2023-04-15T01:25:28;3.88;;;3.30;;
66946;SDS011;53853;51.982;5.928;2023-04-15T01:28:00;4.18;;;3.25;;
66946;SDS011;53853;51.982;5.928;2023-04-15T01:30:32;5.93;;;4.07;;
66946;SDS011;53853;51.982;5.928;2023-04-15T01:33:02;4.80;;;3.78;;
66946;SDS011;53853;51.982;5.928;2023-04-15T01:35:32;3.30;;;2.88;;
66946;SDS011;53853;51.982;5.928;2023-04-15T01:38:03;4.13;;;3.03;;
66946;SDS011;53853;51.982;5.928;2023-04-15T01:40:37;5.70;;;4.38;;
66946;SDS011;53853;51.982;5.928;2023-04-15T01:43:07;4.82;;;3.50;;
66946;SDS011;53853;51.982;5.928;2023-04-15T01:45:37;5.32;;;3.75;;
66946;SDS011;53853;51.982;5.928;2023-04-15T01:48:07;4.72;;;3.80;;
66946;SDS011;53853;51.982;5.928;2023-04-15T01:50:37;5.57;;;4.65;;
66946;SDS011;53853;51.982;5.928;2023-04-15T01:53:07;4.93;;;3.35;;
66946;SDS011;53853;51.982;5.928;2023-04-15T01:55:40;3.88;;;3.45;;
66946;SDS011;53853;51.982;5.928;2023-04-15T01:58:09;4.88;;;3.60;;
66946;SDS011;53853;51.982;5.928;2023-04-15T02:00:39;4.60;;;3.22;;
66946;SDS011;53853;51.982;5.928;2023-04-15T02:03:10;5.10;;;3.13;;
66946;SDS011;53853;51.982;5.928;2023-04-15T02:05:40;6.07;;;3.30;;
66946;SDS011;53853;51.982;5.928;2023-04-15T02:08:10;6.25;;;3.85;;
66946;SDS011;53853;51.982;5.928;2023-04-15T02:10:42;5.50;;;3.30;;
66946;SDS011;53853;51.982;5.928;2023-04-15T02:13:12;4.47;;;3.70;;
66946;SDS011;53853;51.982;5.928;2023-04-15T02:15:45;4.85;;;3.38;;
66946;SDS011;53853;51.982;5.928;2023-04-15T02:18:18;5.00;;;4.03;;
66946;SDS011;53853;51.982;5.928;2023-04-15T02:20:49;5.70;;;3.80;;
66946;SDS011;53853;51.982;5.928;2023-04-15T02:23:21;6.10;;;4.32;;
66946;SDS011;53853;51.982;5.928;2023-04-15T02:25:53;6.25;;;3.72;;
66946;SDS011;53853;51.982;5.928;2023-04-15T02:28:24;6.05;;;3.75;;
66946;SDS011;53853;51.982;5.928;2023-04-15T02:30:54;4.60;;;3.60;;
66946;SDS011;53853;51.982;5.928;2023-04-15T02:33:24;5.60;;;3.90;;
66946;SDS011;53853;51.982;5.928;2023-04-15T02:35:54;5.60;;;3.97;;
66946;SDS011;53853;51.982;5.928;2023-04-15T02:38:25;7.30;;;4.60;;
66946;SDS011;53853;51.982;5.928;2023-04-15T02:40:59;7.18;;;4.70;;
66946;SDS011;53853;51.982;5.928;2023-04-15T02:43:29;5.30;;;4.40;;
66946;SDS011;53853;51.982;5.928;2023-04-15T02:45:59;5.90;;;4.65;;
66946;SDS011;53853;51.982;5.928;2023-04-15T02:48:29;7.28;;;5.30;;
66946;SDS011;53853;51.982;5.928;2023-04-15T02:51:12;5.70;;;4.60;;
66946;SDS011;53853;51.982;5.928;2023-04-15T02:53:43;7.15;;;4.65;;
66946;SDS011;53853;51.982;5.928;2023-04-15T02:56:15;8.23;;;5.78;;
66946;SDS011;53853;51.982;5.928;2023-04-15T02:58:47;6.47;;;5.13;;
66946;SDS011;53853;51.982;5.928;2023-04-15T03:01:21;7.53;;;6.07;;
66946;SDS011;53853;51.982;5.928;2023-04-15T03:03:51;7.40;;;5.57;;
66946;SDS011;53853;51.982;5.928;2023-04-15T03:06:21;9.93;;;6.18;;
66946;SDS011;53853;51.982;5.928;2023-04-15T03:08:51;7.35;;;5.05;;
66946;SDS011;53853;51.982;5.928;2023-04-15T03:11:24;8.45;;;5.97;;
66946;SDS011;53853;51.982;5.928;2023-04-15T03:13:54;7.22;;;5.00;;
66946;SDS011;53853;51.982;5.928;2023-04-15T03:16:29;7.47;;;4.68;;
66946;SDS011;53853;51.982;5.928;2023-04-15T03:18:59;6.18;;;4.90;;
66946;SDS011;53853;51.982;5.928;2023-04-15T03:21:30;6.00;;;5.05;;
66946;SDS011;53853;51.982;5.928;2023-04-15T03:24:00;5.32;;;4.32;;
66946;SDS011;53853;51.982;5.928;2023-04-15T03:26:33;7.95;;;6.20;;
66946;SDS011;53853;51.982;5.928;2023-04-15T03:29:10;9.02;;;6.68;;
66946;SDS011;53853;51.982;5.928;2023-04-15T03:31:40;9.35;;;7.07;;
66946;SDS011;53853;51.982;5.928;2023-04-15T03:34:10;8.05;;;7.22;;
66946;SDS011;53853;51.982;5.928;2023-04-15T03:36:40;7.40;;;5.95;;
66946;SDS011;53853;51.982;5.928;2023-04-15T03:39:10;8.48;;;6.72;;
66946;SDS011;53853;51.982;5.928;2023-04-15T03:41:43;8.57;;;6.82;;
66946;SDS011;53853;51.982;5.928;2023-04-15T03:44:13;10.75;;;7.22;;
66946;SDS011;53853;51.982;5.928;2023-04-15T03:46:42;8.63;;;6.10;;
66946;SDS011;53853;51.982;5.928;2023-04-15T03:49:12;7.30;;;6.10;;
66946;SDS011;53853;51.982;5.928;2023-04-15T03:51:44;8.88;;;5.30;;
66946;SDS011;53853;51.982;5.928;2023-04-15T03:54:13;7.85;;;6.00;;
66946;SDS011;53853;51.982;5.928;2023-04-15T03:56:46;8.13;;;5.90;;
66946;SDS011;53853;51.982;5.928;2023-04-15T03:59:16;9.05;;;5.28;;
66946;SDS011;53853;51.982;5.928;2023-04-15T04:01:45;8.57;;;6.45;;
66946;SDS011;53853;51.982;5.928;2023-04-15T04:04:15;9.40;;;6.93;;
66946;SDS011;53853;51.982;5.928;2023-04-15T04:06:45;7.85;;;5.43;;
66946;SDS011;53853;51.982;5.928;2023-04-15T04:09:15;7.97;;;5.82;;
66946;SDS011;53853;51.982;5.928;2023-04-15T04:11:48;9.73;;;6.45;;
66946;SDS011;53853;51.982;5.928;2023-04-15T04:14:18;7.57;;;6.10;;
66946;SDS011;53853;51.982;5.928;2023-04-15T04:16:54;6.50;;;5.32;;
66946;SDS011;53853;51.982;5.928;2023-04-15T04:19:24;7.00;;;5.32;;
66946;SDS011;53853;51.982;5.928;2023-04-15T04:21:54;8.85;;;6.70;;
66946;SDS011;53853;51.982;5.928;2023-04-15T04:24:24;7.35;;;5.43;;
66946;SDS011;53853;51.982;5.928;2023-04-15T04:26:57;7.95;;;6.25;;
66946;SDS011;53853;51.982;5.928;2023-04-15T04:29:27;7.72;;;6.55;;
66946;SDS011;53853;51.982;5.928;2023-04-15T04:31:57;9.63;;;7.90;;
66946;SDS011;53853;51.982;5.928;2023-04-15T04:34:27;7.60;;;6.75;;
66946;SDS011;53853;51.982;5.928;2023-04-15T04:36:57;8.70;;;6.03;;
66946;SDS011;53853;51.982;5.928;2023-04-15T04:39:27;6.30;;;5.38;;
66946;SDS011;53853;51.982;5.928;2023-04-15T04:42:00;9.52;;;6.93;;
66946;SDS011;53853;51.982;5.928;2023-04-15T04:44:29;7.65;;;5.88;;
66946;SDS011;53853;51.982;5.928;2023-04-15T04:46:59;9.13;;;6.05;;
66946;SDS011;53853;51.982;5.928;2023-04-15T04:49:29;7.00;;;6.15;;
66946;SDS011;53853;51.982;5.928;2023-04-15T04:51:59;9.02;;;7.20;;
66946;SDS011;53853;51.982;5.928;2023-04-15T04:54:29;10.27;;;7.00;;
66946;SDS011;53853;51.982;5.928;2023-04-15T04:57:01;10.27;;;6.45;;
66946;SDS011;53853;51.982;5.928;2023-04-15T04:59:32;9.85;;;8.15;;
66946;SDS011;53853;51.982;5.928;2023-04-15T05:02:02;7.40;;;5.43;;
66946;SDS011;53853;51.982;5.928;2023-04-15T05:04:32;8.80;;;7.43;;
66946;SDS011;53853;51.982;5.928;2023-04-15T05:07:02;10.75;;;7.95;;
66946;SDS011;53853;51.982;5.928;2023-04-15T05:09:33;9.60;;;8.57;;
66946;SDS011;53853;51.982;5.928;2023-04-15T05:12:05;9.60;;;7.85;;
66946;SDS011;53853;51.982;5.928;2023-04-15T05:14:39;8.95;;;7.40;;
66946;SDS011;53853;51.982;5.928;2023-04-15T05:17:09;9.18;;;7.57;;
66946;SDS011;53853;51.982;5.928;2023-04-15T05:19:39;11.05;;;8.27;;
66946;SDS011;53853;51.982;5.928;2023-04-15T05:22:09;8.05;;;7.13;;
66946;SDS011;53853;51.982;5.928;2023-04-15T05:24:39;10.98;;;8.65;;
66946;SDS011;53853;51.982;5.928;2023-04-15T05:27:11;9.43;;;8.30;;
66946;SDS011;53853;51.982;5.928;2023-04-15T05:29:41;12.70;;;7.90;;
66946;SDS011;53853;51.982;5.928;2023-04-15T05:32:11;10.77;;;8.65;;
66946;SDS011;53853;51.982;5.928;2023-04-15T05:34:41;8.50;;;7.45;;
66946;SDS011;53853;51.982;5.928;2023-04-15T05:37:11;10.20;;;8.48;;
66946;SDS011;53853;51.982;5.928;2023-04-15T05:39:41;9.90;;;7.63;;
66946;SDS011;53853;51.982;5.928;2023-04-15T05:42:14;13.98;;;8.38;;
66946;SDS011;53853;51.982;5.928;2023-04-15T05:44:43;8.27;;;6.90;;
66946;SDS011;53853;51.982;5.928;2023-04-15T05:47:13;11.23;;;8.77;;
66946;SDS011;53853;51.982;5.928;2023-04-15T05:49:43;12.65;;;9.32;;
66946;SDS011;53853;51.982;5.928;2023-04-15T05:52:13;8.75;;;7.10;;
66946;SDS011;53853;51.982;5.928;2023-04-15T05:54:43;9.68;;;7.45;;
66946;SDS011;53853;51.982;5.928;2023-04-15T05:57:15;10.50;;;9.02;;
66946;SDS011;53853;51.982;5.928;2023-04-15T05:59:45;11.80;;;9.35;;
66946;SDS011;53853;51.982;5.928;2023-04-15T06:02:17;9.85;;;7.15;;
66946;SDS011;53853;51.982;5.928;2023-04-15T06:04:46;10.27;;;8.07;;
66946;SDS011;53853;51.982;5.928;2023-04-15T06:07:17;10.57;;;7.93;;
66946;SDS011;53853;51.982;5.928;2023-04-15T06:09:46;7.90;;;6.30;;
66946;SDS011;53853;51.982;5.928;2023-04-15T06:12:19;9.45;;;8.00;;
66946;SDS011;53853;51.982;5.928;2023-04-15T06:14:49;8.18;;;7.35;;
66946;SDS011;53853;51.982;5.928;2023-04-15T06:17:19;10.77;;;9.32;;
66946;SDS011;53853;51.982;5.928;2023-04-15T06:19:49;11.68;;;9.15;;
66946;SDS011;53853;51.982;5.928;2023-04-15T06:22:20;10.52;;;8.02;;
66946;SDS011;53853;51.982;5.928;2023-04-15T06:24:50;9.82;;;8.63;;
66946;SDS011;53853;51.982;5.928;2023-04-15T06:27:23;12.27;;;10.13;;
66946;SDS011;53853;51.982;5.928;2023-04-15T06:29:52;9.93;;;7.38;;
66946;SDS011;53853;51.982;5.928;2023-04-15T06:32:22;10.77;;;8.00;;
66946;SDS011;53853;51.982;5.928;2023-04-15T06:34:52;8.07;;;6.82;;
66946;SDS011;53853;51.982;5.928;2023-04-15T06:37:22;9.68;;;7.28;;
66946;SDS011;53853;51.982;5.928;2023-04-15T06:39:52;12.38;;;8.38;;
66946;SDS011;53853;51.982;5.928;2023-04-15T06:42:24;10.48;;;7.53;;
66946;SDS011;53853;51.982;5.928;2023-04-15T06:44:54;9.18;;;6.63;;
66946;SDS011;53853;51.982;5.928;2023-04-15T06:47:24;8.85;;;7.90;;
66946;SDS011;53853;51.982;5.928;2023-04-15T06:49:54;7.97;;;6.78;;
66946;SDS011;53853;51.982;5.928;2023-04-15T06:52:24;7.95;;;7.07;;
66946;SDS011;53853;51.982;5.928;2023-04-15T06:54:54;10.20;;;7.63;;
66946;SDS011;53853;51.982;5.928;2023-04-15T06:57:26;7.55;;;6.75;;
66946;SDS011;53853;51.982;5.928;2023-04-15T06:59:56;11.25;;;8.68;;
66946;SDS011;53853;51.982;5.928;2023-04-15T07:02:26;10.65;;;8.93;;
66946;SDS011;53853;51.982;5.928;2023-04-15T07:04:56;8.85;;;7.40;;
66946;SDS011;53853;51.982;5.928;2023-04-15T07:07:26;9.75;;;8.48;;
66946;SDS011;53853;51.982;5.928;2023-04-15T07:09:56;9.55;;;8.55;;
66946;SDS011;53853;51.982;5.928;2023-04-15T07:12:29;9.07;;;8.00;;
66946;SDS011;53853;51.982;5.928;2023-04-15T07:15:00;8.95;;;8.00;;
66946;SDS011;53853;51.982;5.928;2023-04-15T07:17:31;8.27;;;7.30;;
66946;SDS011;53853;51.982;5.928;2023-04-15T07:20:01;8.75;;;7.15;;
66946;SDS011;53853;51.982;5.928;2023-04-15T07:22:32;11.07;;;7.43;;
66946;SDS011;53853;51.982;5.928;2023-04-15T07:25:02;9.15;;;7.50;;
66946;SDS011;53853;51.982;5.928;2023-04-15T07:27:35;10.23;;;8.43;;
66946;SDS011;53853;51.982;5.928;2023-04-15T07:30:05;10.43;;;9.07;;
66946;SDS011;53853;51.982;5.928;2023-04-15T07:32:36;11.27;;;9.10;;
66946;SDS011;53853;51.982;5.928;2023-04-15T07:35:06;8.40;;;7.50;;
66946;SDS011;53853;51.982;5.928;2023-04-15T07:37:37;11.23;;;7.57;;
66946;SDS011;53853;51.982;5.928;2023-04-15T07:40:08;10.70;;;8.02;;
66946;SDS011;53853;51.982;5.928;2023-04-15T07:42:42;10.18;;;7.80;;
66946;SDS011;53853;51.982;5.928;2023-04-15T07:45:14;10.20;;;7.70;;
66946;SDS011;53853;51.982;5.928;2023-04-15T07:47:44;10.75;;;8.13;;
66946;SDS011;53853;51.982;5.928;2023-04-15T07:50:13;9.38;;;7.95;;
66946;SDS011;53853;51.982;5.928;2023-04-15T07:52:44;10.57;;;8.50;;
66946;SDS011;53853;51.982;5.928;2023-04-15T07:55:14;9.63;;;7.93;;
66946;SDS011;53853;51.982;5.928;2023-04-15T07:57:48;9.65;;;8.13;;
66946;SDS011;53853;51.982;5.928;2023-04-15T08:00:18;9.00;;;6.95;;
66946;SDS011;53853;51.982;5.928;2023-04-15T08:02:48;10.85;;;8.70;;
66946;SDS011;53853;51.982;5.928;2023-04-15T08:05:18;10.75;;;8.80;;
66946;SDS011;53853;51.982;5.928;2023-04-15T08:07:48;9.00;;;7.75;;
66946;SDS011;53853;51.982;5.928;2023-04-15T08:10:18;7.93;;;6.45;;
66946;SDS011;53853;51.982;5.928;2023-04-15T08:12:51;9.43;;;7.90;;
66946;SDS011;53853;51.982;5.928;2023-04-15T08:15:22;8.57;;;7.30;;
66946;SDS011;53853;51.982;5.928;2023-04-15T08:17:53;9.57;;;6.95;;
66946;SDS011;53853;51.982;5.928;2023-04-15T08:20:25;7.30;;;5.28;;
66946;SDS011;53853;51.982;5.928;2023-04-15T08:22:55;7.53;;;5.90;;
66946;SDS011;53853;51.982;5.928;2023-04-15T08:25:25;8.43;;;6.13;;
66946;SDS011;53853;51.982;5.928;2023-04-15T08:27:57;6.95;;;5.50;;
66946;SDS011;53853;51.982;5.928;2023-04-15T08:30:31;6.05;;;5.45;;
66946;SDS011;53853;51.982;5.928;2023-04-15T08:33:02;7.75;;;5.15;;
66946;SDS011;53853;51.982;5.928;2023-04-15T08:35:31;5.53;;;4.80;;
66946;SDS011;53853;51.982;5.928;2023-04-15T08:38:02;5.43;;;3.70;;
66946;SDS011;53853;51.982;5.928;2023-04-15T08:40:34;5.55;;;4.32;;
66946;SDS011;53853;51.982;5.928;2023-04-15T08:43:12;5.63;;;4.85;;
66946;SDS011;53853;51.982;5.928;2023-04-15T08:45:45;5.70;;;5.00;;
66946;SDS011;53853;51.982;5.928;2023-04-15T08:48:16;6.80;;;5.53;;
66946;SDS011;53853;51.982;5.928;2023-04-15T08:50:47;5.03;;;4.45;;
66946;SDS011;53853;51.982;5.928;2023-04-15T08:53:18;5.13;;;4.10;;
66946;SDS011;53853;51.982;5.928;2023-04-15T08:55:50;5.32;;;4.30;;
66946;SDS011;53853;51.982;5.928;2023-04-15T08:58:24;5.87;;;5.27;;
66946;SDS011;53853;51.982;5.928;2023-04-15T09:00:55;5.47;;;4.47;;
66946;SDS011;53853;51.982;5.928;2023-04-15T09:03:25;6.03;;;4.85;;
66946;SDS011;53853;51.982;5.928;2023-04-15T09:05:56;5.85;;;4.60;;
66946;SDS011;53853;51.982;5.928;2023-04-15T09:08:27;5.93;;;5.32;;
66946;SDS011;53853;51.982;5.928;2023-04-15T09:10:56;5.68;;;4.75;;
66946;SDS011;53853;51.982;5.928;2023-04-15T09:13:29;7.35;;;4.18;;
66946;SDS011;53853;51.982;5.928;2023-04-15T09:16:00;5.15;;;3.70;;
66946;SDS011;53853;51.982;5.928;2023-04-15T09:18:31;6.13;;;4.22;;
66946;SDS011;53853;51.982;5.928;2023-04-15T09:21:05;6.70;;;4.72;;
66946;SDS011;53853;51.982;5.928;2023-04-15T09:26:06;5.80;;;4.53;;
66946;SDS011;53853;51.982;5.928;2023-04-15T09:28:42;5.20;;;3.92;;
66946;SDS011;53853;51.982;5.928;2023-04-15T09:31:12;6.18;;;4.63;;
66946;SDS011;53853;51.982;5.928;2023-04-15T09:33:53;6.25;;;5.22;;
66946;SDS011;53853;51.982;5.928;2023-04-15T09:36:24;5.82;;;5.20;;
66946;SDS011;53853;51.982;5.928;2023-04-15T09:38:54;6.47;;;5.32;;
66946;SDS011;53853;51.982;5.928;2023-04-15T09:41:26;5.25;;;4.53;;
66946;SDS011;53853;51.982;5.928;2023-04-15T09:43:58;4.90;;;4.10;;
66946;SDS011;53853;51.982;5.928;2023-04-15T09:46:40;5.07;;;4.07;;
66946;SDS011;53853;51.982;5.928;2023-04-15T09:49:11;5.63;;;4.10;;
66946;SDS011;53853;51.982;5.928;2023-04-15T09:51:40;5.05;;;3.90;;
66946;SDS011;53853;51.982;5.928;2023-04-15T09:54:10;7.05;;;4.22;;
66946;SDS011;53853;51.982;5.928;2023-04-15T09:56:40;5.47;;;3.50;;
66946;SDS011;53853;51.982;5.928;2023-04-15T09:59:13;5.25;;;3.95;;
66946;SDS011;53853;51.982;5.928;2023-04-15T10:01:43;5.38;;;3.97;;
66946;SDS011;53853;51.982;5.928;2023-04-15T10:04:14;6.18;;;4.40;;
66946;SDS011;53853;51.982;5.928;2023-04-15T10:06:44;5.20;;;4.28;;
66946;SDS011;53853;51.982;5.928;2023-04-15T10:09:14;6.70;;;5.10;;
66946;SDS011;53853;51.982;5.928;2023-04-15T10:11:44;5.15;;;4.25;;
66946;SDS011;53853;51.982;5.928;2023-04-15T10:14:19;5.00;;;3.80;;
66946;SDS011;53853;51.982;5.928;2023-04-15T10:16:50;5.70;;;4.05;;
66946;SDS011;53853;51.982;5.928;2023-04-15T10:19:24;6.10;;;4.05;;
66946;SDS011;53853;51.982;5.928;2023-04-15T10:21:55;5.70;;;4.35;;
66946;SDS011;53853;51.982;5.928;2023-04-15T10:24:25;6.07;;;4.50;;
66946;SDS011;53853;51.982;5.928;2023-04-15T10:26:55;5.97;;;4.22;;
66946;SDS011;53853;51.982;5.928;2023-04-15T10:29:29;6.30;;;4.13;;
66946;SDS011;53853;51.982;5.928;2023-04-15T10:31:59;5.20;;;4.18;;
66946;SDS011;53853;51.982;5.928;2023-04-15T10:34:29;4.85;;;3.72;;
66946;SDS011;53853;51.982;5.928;2023-04-15T10:37:00;5.97;;;3.53;;
66946;SDS011;53853;51.982;5.928;2023-04-15T10:39:38;4.82;;;3.45;;
66946;SDS011;53853;51.982;5.928;2023-04-15T10:42:10;3.97;;;3.25;;
66946;SDS011;53853;51.982;5.928;2023-04-15T10:44:43;4.50;;;3.42;;
66946;SDS011;53853;51.982;5.928;2023-04-15T10:47:18;5.00;;;3.60;;
66946;SDS011;53853;51.982;5.928;2023-04-15T10:49:50;4.68;;;3.42;;
66946;SDS011;53853;51.982;5.928;2023-04-15T10:52:25;5.90;;;3.70;;
66946;SDS011;53853;51.982;5.928;2023-04-15T10:55:01;5.78;;;4.00;;
66946;SDS011;53853;51.982;5.928;2023-04-15T10:57:36;4.72;;;3.42;;
66946;SDS011;53853;51.982;5.928;2023-04-15T11:00:11;4.70;;;3.80;;
66946;SDS011;53853;51.982;5.928;2023-04-15T11:02:43;4.30;;;3.45;;
66946;SDS011;53853;51.982;5.928;2023-04-15T11:05:15;5.05;;;4.10;;
66946;SDS011;53853;51.982;5.928;2023-04-15T11:07:49;10.70;;;4.65;;
66946;SDS011;53853;51.982;5.928;2023-04-15T11:13:21;4.15;;;3.72;;
66946;SDS011;53853;51.982;5.928;2023-04-15T11:16:00;5.38;;;3.70;;
66946;SDS011;53853;51.982;5.928;2023-04-15T11:18:32;6.17;;;3.90;;
66946;SDS011;53853;51.982;5.928;2023-04-15T11:21:03;5.90;;;3.58;;
66946;SDS011;53853;51.982;5.928;2023-04-15T11:23:36;6.00;;;4.18;;
66946;SDS011;53853;51.982;5.928;2023-04-15T11:26:09;4.65;;;3.55;;
66946;SDS011;53853;51.982;5.928;2023-04-15T11:28:40;4.05;;;3.13;;
66946;SDS011;53853;51.982;5.928;2023-04-15T11:31:14;5.18;;;3.00;;
66946;SDS011;53853;51.982;5.928;2023-04-15T11:33:46;6.95;;;3.28;;
66946;SDS011;53853;51.982;5.928;2023-04-15T11:36:22;3.85;;;2.53;;
66946;SDS011;53853;51.982;5.928;2023-04-15T11:38:54;3.95;;;3.03;;
66946;SDS011;53853;51.982;5.928;2023-04-15T11:41:25;3.90;;;2.50;;
66946;SDS011;53853;51.982;5.928;2023-04-15T11:43:55;3.15;;;2.25;;
66946;SDS011;53853;51.982;5.928;2023-04-15T11:46:30;4.00;;;2.45;;
66946;SDS011;53853;51.982;5.928;2023-04-15T11:49:00;3.55;;;2.08;;
66946;SDS011;53853;51.982;5.928;2023-04-15T11:51:31;3.50;;;1.98;;
66946;SDS011;53853;51.982;5.928;2023-04-15T11:54:01;4.60;;;2.08;;
66946;SDS011;53853;51.982;5.928;2023-04-15T11:56:31;4.80;;;2.25;;
66946;SDS011;53853;51.982;5.928;2023-04-15T11:59:01;4.55;;;2.13;;
66946;SDS011;53853;51.982;5.928;2023-04-15T12:01:34;3.95;;;2.33;;
66946;SDS011;53853;51.982;5.928;2023-04-15T12:04:09;4.72;;;2.00;;
66946;SDS011;53853;51.982;5.928;2023-04-15T12:09:11;5.03;;;2.63;;
66946;SDS011;53853;51.982;5.928;2023-04-15T12:11:42;5.18;;;2.20;;
66946;SDS011;53853;51.982;5.928;2023-04-15T12:14:20;3.42;;;1.70;;
66946;SDS011;53853;51.982;5.928;2023-04-15T12:16:56;2.55;;;1.77;;
66946;SDS011;53853;51.982;5.928;2023-04-15T12:19:28;2.72;;;1.67;;
66946;SDS011;53853;51.982;5.928;2023-04-15T12:22:02;3.10;;;1.83;;
66946;SDS011;53853;51.982;5.928;2023-04-15T12:24:34;5.85;;;2.22;;
66946;SDS011;53853;51.982;5.928;2023-04-15T12:27:05;3.13;;;1.90;;
66946;SDS011;53853;51.982;5.928;2023-04-15T12:29:38;2.58;;;1.45;;
66946;SDS011;53853;51.982;5.928;2023-04-15T12:32:12;2.40;;;1.58;;
66946;SDS011;53853;51.982;5.928;2023-04-15T12:34:48;3.55;;;1.73;;
66946;SDS011;53853;51.982;5.928;2023-04-15T12:37:19;2.90;;;1.80;;
66946;SDS011;53853;51.982;5.928;2023-04-15T12:39:49;4.22;;;1.55;;
66946;SDS011;53853;51.982;5.928;2023-04-15T12:42:19;4.13;;;1.92;;
66946;SDS011;53853;51.982;5.928;2023-04-15T12:44:49;4.05;;;1.90;;
66946;SDS011;53853;51.982;5.928;2023-04-15T12:47:22;3.45;;;2.00;;
66946;SDS011;53853;51.982;5.928;2023-04-15T12:49:52;3.85;;;1.65;;
66946;SDS011;53853;51.982;5.928;2023-04-15T12:52:21;2.88;;;1.75;;
66946;SDS011;53853;51.982;5.928;2023-04-15T12:54:52;3.47;;;2.15;;
66946;SDS011;53853;51.982;5.928;2023-04-15T12:57:22;2.65;;;1.55;;
66946;SDS011;53853;51.982;5.928;2023-04-15T12:59:51;4.10;;;2.28;;
66946;SDS011;53853;51.982;5.928;2023-04-15T13:02:24;3.33;;;1.90;;
66946;SDS011;53853;51.982;5.928;2023-04-15T13:04:54;4.60;;;1.88;;
66946;SDS011;53853;51.982;5.928;2023-04-15T13:07:23;3.80;;;1.90;;
66946;SDS011;53853;51.982;5.928;2023-04-15T13:09:53;3.20;;;1.48;;
66946;SDS011;53853;51.982;5.928;2023-04-15T13:12:23;2.60;;;1.60;;
66946;SDS011;53853;51.982;5.928;2023-04-15T13:14:55;2.25;;;1.27;;
66946;SDS011;53853;51.982;5.928;2023-04-15T13:17:28;4.10;;;1.92;;
66946;SDS011;53853;51.982;5.928;2023-04-15T13:19:58;3.13;;;1.65;;
66946;SDS011;53853;51.982;5.928;2023-04-15T13:22:27;3.15;;;1.63;;
66946;SDS011;53853;51.982;5.928;2023-04-15T13:24:58;4.10;;;1.50;;
66946;SDS011;53853;51.982;5.928;2023-04-15T13:27:28;3.38;;;1.17;;
66946;SDS011;53853;51.982;5.928;2023-04-15T13:29:58;2.83;;;1.30;;
66946;SDS011;53853;51.982;5.928;2023-04-15T13:32:30;5.13;;;1.60;;
66946;SDS011;53853;51.982;5.928;2023-04-15T13:35:00;2.20;;;1.20;;
66946;SDS011;53853;51.982;5.928;2023-04-15T13:37:31;2.88;;;1.27;;
66946;SDS011;53853;51.982;5.928;2023-04-15T13:40:01;2.47;;;1.00;;
66946;SDS011;53853;51.982;5.928;2023-04-15T13:42:32;2.92;;;1.35;;
66946;SDS011;53853;51.982;5.928;2023-04-15T13:45:02;2.05;;;1.13;;
66946;SDS011;53853;51.982;5.928;2023-04-15T13:47:35;2.45;;;1.20;;
66946;SDS011;53853;51.982;5.928;2023-04-15T13:50:05;4.18;;;1.45;;
66946;SDS011;53853;51.982;5.928;2023-04-15T13:52:36;3.00;;;1.63;;
66946;SDS011;53853;51.982;5.928;2023-04-15T13:55:06;1.98;;;1.08;;
66946;SDS011;53853;51.982;5.928;2023-04-15T13:57:37;2.53;;;1.20;;
66946;SDS011;53853;51.982;5.928;2023-04-15T14:00:07;6.03;;;1.45;;
66946;SDS011;53853;51.982;5.928;2023-04-15T14:02:41;3.47;;;1.33;;
66946;SDS011;53853;51.982;5.928;2023-04-15T14:05:11;2.50;;;1.25;;
66946;SDS011;53853;51.982;5.928;2023-04-15T14:07:41;2.45;;;1.10;;
66946;SDS011;53853;51.982;5.928;2023-04-15T14:10:11;2.95;;;1.23;;
66946;SDS011;53853;51.982;5.928;2023-04-15T14:12:40;2.53;;;1.40;;
66946;SDS011;53853;51.982;5.928;2023-04-15T14:15:10;7.72;;;1.38;;
66946;SDS011;53853;51.982;5.928;2023-04-15T14:17:43;2.28;;;1.27;;
66946;SDS011;53853;51.982;5.928;2023-04-15T14:20:13;2.55;;;1.35;;
66946;SDS011;53853;51.982;5.928;2023-04-15T14:22:42;2.33;;;1.40;;
66946;SDS011;53853;51.982;5.928;2023-04-15T14:25:12;3.58;;;1.48;;
66946;SDS011;53853;51.982;5.928;2023-04-15T14:27:42;4.47;;;1.63;;
66946;SDS011;53853;51.982;5.928;2023-04-15T14:30:13;3.70;;;1.40;;
66946;SDS011;53853;51.982;5.928;2023-04-15T14:32:45;2.55;;;1.42;;
66946;SDS011;53853;51.982;5.928;2023-04-15T14:35:15;2.97;;;1.40;;
66946;SDS011;53853;51.982;5.928;2023-04-15T14:37:45;5.88;;;1.80;;
66946;SDS011;53853;51.982;5.928;2023-04-15T14:40:15;2.38;;;1.35;;
66946;SDS011;53853;51.982;5.928;2023-04-15T14:42:45;3.80;;;1.60;;
66946;SDS011;53853;51.982;5.928;2023-04-15T14:45:15;4.15;;;1.70;;
66946;SDS011;53853;51.982;5.928;2023-04-15T14:47:48;3.85;;;1.42;;
66946;SDS011;53853;51.982;5.928;2023-04-15T14:50:18;3.40;;;1.58;;
66946;SDS011;53853;51.982;5.928;2023-04-15T14:52:48;2.67;;;1.70;;
66946;SDS011;53853;51.982;5.928;2023-04-15T14:55:18;3.15;;;1.50;;
66946;SDS011;53853;51.982;5.928;2023-04-15T14:57:47;4.93;;;2.15;;
66946;SDS011;53853;51.982;5.928;2023-04-15T15:00:17;5.10;;;1.90;;
66946;SDS011;53853;51.982;5.928;2023-04-15T15:02:50;4.25;;;1.88;;
66946;SDS011;53853;51.982;5.928;2023-04-15T15:05:20;3.80;;;2.13;;
66946;SDS011;53853;51.982;5.928;2023-04-15T15:07:50;3.40;;;1.80;;
66946;SDS011;53853;51.982;5.928;2023-04-15T15:10:20;3.65;;;1.40;;
66946;SDS011;53853;51.982;5.928;2023-04-15T15:12:50;4.05;;;2.13;;
66946;SDS011;53853;51.982;5.928;2023-04-15T15:15:20;4.70;;;2.28;;
66946;SDS011;53853;51.982;5.928;2023-04-15T15:17:52;3.20;;;1.55;;